Time;durP1;ratioP1;P1;durP2;ratioP2;P2;SDS_P1;SDS_P2;PMS_P1;PMS_P2;Temp;Humidity;BMP_temperature;BMP_pressure;BME280_temperature;BME280_humidity;BME280_pressure;Samples;Min_cycle;Max_cycle;Signal;HPM_P1;HPM_P2
2021/05/29 00:01:15;;;;;;;1.55;1.30;;;;;;;10.31;75.13;99563.25;5062243;28;20083;-80
2021/05/29 00:03:41;;;;;;;2.92;1.42;;;;;;;10.29;75.55;99560.72;5059177;28;20056;-79
2021/05/29 00:06:08;;;;;;;4.72;1.50;;;;;;;10.35;73.52;99554.59;5068383;28;20049;-80
2021/05/29 00:08:34;;;;;;;2.28;1.45;;;;;;;10.26;73.75;99552.91;5051511;28;20084;-79
2021/05/29 00:11:05;;;;;;;1.90;1.45;;;;;;;10.14;74.41;99548.84;5051525;28;20049;-80
2021/05/29 00:13:32;;;;;;;2.17;1.33;;;;;;;10.24;75.15;99560.41;5050416;28;20045;-80
2021/05/29 00:15:59;;;;;;;2.85;1.40;;;;;;;10.14;75.11;99544.25;5050112;28;20049;-80
2021/05/29 00:18:26;;;;;;;2.97;1.30;;;;;;;10.21;75.11;99542.56;5050353;28;20041;-80
2021/05/29 00:20:53;;;;;;;4.80;1.45;;;;;;;10.25;74.18;99551.19;5054403;28;20048;-80
2021/05/29 00:23:22;;;;;;;3.53;1.65;;;;;;;10.36;74.90;99539.16;5051909;28;20041;-80
2021/05/29 00:25:48;;;;;;;2.00;1.60;;;;;;;10.53;74.90;99542.66;5051349;28;20053;-80
2021/05/29 00:28:15;;;;;;;2.25;1.70;;;;;;;10.49;75.17;99544.88;5053066;28;20049;-80
2021/05/29 00:30:42;;;;;;;1.60;1.38;;;;;;;10.37;75.32;99549.88;5058021;28;20044;-80
2021/05/29 00:33:08;;;;;;;2.00;1.65;;;;;;;10.46;75.63;99542.50;5069980;28;20052;-79
2021/05/29 00:35:42;;;;;;;2.17;1.30;;;;;;;10.47;75.58;99540.66;5060171;28;20114;-80
2021/05/29 00:38:09;;;;;;;3.17;1.30;;;;;;;10.43;75.20;99540.13;5051382;28;20452;-80
2021/05/29 00:40:36;;;;;;;2.35;1.42;;;;;;;10.42;74.82;99536.59;5053800;28;20049;-79
2021/05/29 00:43:04;;;;;;;1.67;1.38;;;;;;;10.30;75.05;99512.63;5067806;28;20040;-79
2021/05/29 00:45:30;;;;;;;1.40;1.30;;;;;;;10.30;75.37;99515.34;5068771;28;20484;-80
2021/05/29 00:48:01;;;;;;;2.45;1.50;;;;;;;10.20;76.02;99519.13;5068890;28;20048;-79
2021/05/29 00:50:27;;;;;;;3.60;1.40;;;;;;;10.00;76.93;99513.22;5061980;28;20507;-80
2021/05/29 00:52:56;;;;;;;1.80;1.38;;;;;;;10.09;75.84;99516.78;5050780;28;20079;-80
2021/05/29 00:55:22;;;;;;;2.90;1.40;;;;;;;10.18;75.73;99515.75;5050827;28;20106;-80
2021/05/29 00:57:50;;;;;;;4.15;1.55;;;;;;;10.19;75.38;99522.88;5051153;28;20068;-80
2021/05/29 01:00:19;;;;;;;3.05;1.27;;;;;;;10.09;76.19;99517.63;5066587;28;20101;-80
2021/05/29 01:02:46;;;;;;;3.28;1.55;;;;;;;10.18;75.81;99523.88;5055989;28;20044;-80
2021/05/29 01:05:15;;;;;;;6.85;1.52;;;;;;;10.23;75.70;99516.03;5056852;28;20059;-80
2021/05/29 01:07:42;;;;;;;1.48;1.38;;;;;;;10.27;74.38;99522.84;5071187;28;20053;-80
2021/05/29 01:10:11;;;;;;;1.30;1.20;;;;;;;10.26;75.08;99529.28;5068407;28;20119;-80
2021/05/29 01:12:37;;;;;;;3.42;1.50;;;;;;;10.25;74.60;99519.47;5058592;28;20060;-80
2021/05/29 01:15:07;;;;;;;3.33;1.67;;;;;;;10.31;73.91;99522.50;5058164;28;20116;-80
2021/05/29 01:17:33;;;;;;;;;;;;;;;10.16;75.77;99525.06;5058449;28;20040;-80
2021/05/29 01:20:00;;;;;;;4.10;1.38;;;;;;;10.04;76.45;99528.16;5071517;28;19920;-80
2021/05/29 01:22:39;;;;;;;4.90;1.30;;;;;;;10.03;76.71;99529.19;5062490;28;20041;-81
2021/05/29 01:25:09;;;;;;;3.70;1.75;;;;;;;10.13;76.54;99528.97;5056602;28;20102;-81
2021/05/29 01:27:41;;;;;;;3.72;1.48;;;;;;;10.03;77.37;99525.63;5054123;28;20045;-80
2021/05/29 01:30:09;;;;;;;4.55;1.63;;;;;;;9.96;78.10;99533.59;5054870;28;20045;-80
2021/05/29 01:32:35;;;;;;;3.90;2.00;;;;;;;9.88;77.94;99534.47;5054747;28;20059;-80
2021/05/29 01:35:04;;;;;;;3.78;1.60;;;;;;;9.92;77.19;99535.81;5066339;28;20044;-80
2021/05/29 01:37:30;;;;;;;1.77;1.42;;;;;;;9.84;77.55;99533.09;5068387;28;20056;-80
2021/05/29 01:39:57;;;;;;;1.55;1.20;;;;;;;9.81;77.46;99533.44;5054242;28;20114;-80
2021/05/29 01:42:26;;;;;;;2.63;1.63;;;;;;;9.65;77.99;99533.44;5053139;28;20071;-80
2021/05/29 01:44:53;;;;;;;2.83;1.85;;;;;;;9.59;78.54;99531.41;5053404;28;20455;-80
2021/05/29 01:47:20;;;;;;;2.10;1.80;;;;;;;9.52;78.41;99532.09;5053838;28;20400;-80
2021/05/29 01:49:46;;;;;;;1.58;1.42;;;;;;;9.63;78.28;99533.63;5053680;28;20055;-80
2021/05/29 01:52:13;;;;;;;2.53;1.58;;;;;;;9.56;78.81;99527.19;5056129;28;20053;-80
2021/05/29 01:54:39;;;;;;;2.08;1.88;;;;;;;9.50;78.86;99525.13;5056420;28;20048;-81
2021/05/29 01:57:07;;;;;;;1.50;1.40;;;;;;;9.46;79.38;99531.94;5066317;28;20041;-80
2021/05/29 01:59:33;;;;;;;2.65;1.63;;;;;;;9.43;79.23;99532.28;5054109;28;20101;-80
2021/05/29 02:01:59;;;;;;;1.52;1.40;;;;;;;9.43;78.73;99524.97;5070321;28;20044;-81
2021/05/29 02:04:25;;;;;;;3.72;1.60;;;;;;;9.46;78.57;99535.50;5053667;28;20049;-81
2021/05/29 02:06:52;;;;;;;2.20;1.73;;;;;;;9.42;78.50;99541.41;5068749;28;20442;-80
2021/05/29 02:09:18;;;;;;;4.00;1.45;;;;;;;9.61;77.42;99529.41;5058876;28;20044;-81
2021/05/29 02:11:44;;;;;;;7.38;1.65;;;;;;;9.49;77.98;99545.16;5067144;28;20472;-80
2021/05/29 02:14:11;;;;;;;2.15;1.60;;;;;;;9.19;78.67;99533.94;5056756;28;20459;-81
2021/05/29 02:16:37;;;;;;;1.67;1.52;;;;;;;9.12;78.95;99544.63;5054472;28;20045;-80
2021/05/29 02:19:04;;;;;;;1.80;1.60;;;;;;;9.24;78.93;99538.84;5055015;28;20044;-80
2021/05/29 02:21:30;;;;;;;4.93;2.40;;;;;;;9.08;78.48;99531.53;5055002;28;20044;-80
2021/05/29 02:23:56;;;;;;;4.22;1.90;;;;;;;9.09;77.86;99525.94;5072584;28;20052;-80
2021/05/29 02:26:23;;;;;;;2.22;1.50;;;;;;;9.24;77.69;99530.72;5072472;28;20435;-81
2021/05/29 02:28:51;;;;;;;3.15;1.90;;;;;;;9.18;78.00;99537.66;5066259;28;20443;-81
2021/05/29 02:31:19;;;;;;;1.80;1.60;;;;;;;9.23;77.77;99545.28;5054020;28;20296;-81
2021/05/29 02:33:45;;;;;;;3.55;1.60;;;;;;;9.04;78.44;99540.00;5058925;28;20045;-81
2021/05/29 02:36:12;;;;;;;1.75;1.60;;;;;;;8.99;77.92;99527.97;5072709;28;20048;-80
2021/05/29 02:38:38;;;;;;;2.55;1.83;;;;;;;9.02;77.47;99538.47;5054782;28;20075;-80
2021/05/29 02:41:08;;;;;;;3.78;2.15;;;;;;;8.92;78.46;99533.19;5053927;28;20049;-80
2021/05/29 02:43:35;;;;;;;2.85;1.88;;;;;;;8.96;78.75;99531.00;5053170;28;20049;-80
2021/05/29 02:46:01;;;;;;;2.65;2.03;;;;;;;9.05;78.47;99538.16;5067382;28;20053;-80
2021/05/29 02:48:28;;;;;;;1.75;1.50;;;;;;;8.94;78.35;99535.72;5052720;28;20134;-80
2021/05/29 02:50:54;;;;;;;2.10;1.58;;;;;;;8.77;78.88;99530.25;5054107;28;20060;-80
2021/05/29 02:53:21;;;;;;;3.20;1.40;;;;;;;8.72;78.57;99543.47;5053186;28;20048;-80
2021/05/29 02:55:48;;;;;;;2.40;1.75;;;;;;;8.62;78.11;99554.41;5057111;28;20055;-80
2021/05/29 02:58:14;;;;;;;1.52;1.40;;;;;;;8.70;77.87;99552.75;5072330;28;20056;-80
2021/05/29 03:00:42;;;;;;;2.30;1.55;;;;;;;8.60;78.00;99537.50;5061252;28;20056;-80
2021/05/29 03:03:09;;;;;;;3.67;1.98;;;;;;;8.65;77.36;99554.09;5060299;28;20098;-80
2021/05/29 03:05:37;;;;;;;1.85;1.40;;;;;;;8.33;77.60;99547.47;5050709;28;20061;-80
2021/05/29 03:08:05;;;;;;;1.65;1.50;;;;;;;8.39;78.12;99562.25;5051920;28;20057;-79
2021/05/29 03:10:31;;;;;;;3.00;1.70;;;;;;;8.24;79.07;99553.88;5051493;28;20128;-80
2021/05/29 03:12:59;;;;;;;1.75;1.60;;;;;;;8.32;79.32;99569.31;5051535;28;20086;-81
2021/05/29 03:15:26;;;;;;;1.95;1.33;;;;;;;8.32;79.58;99570.19;5051785;28;20053;-81
2021/05/29 03:17:53;;;;;;;2.00;1.38;;;;;;;8.09;80.49;99575.28;5052256;28;20461;-80
2021/05/29 03:20:21;;;;;;;2.83;1.48;;;;;;;8.14;79.84;99577.50;5051778;28;20150;-81
2021/05/29 03:22:48;;;;;;;4.50;1.85;;;;;;;7.94;80.12;99552.50;5051826;28;20091;-81
2021/05/29 03:25:16;;;;;;;1.67;1.58;;;;;;;8.22;79.52;99576.69;5055626;28;20052;-81
2021/05/29 03:27:43;;;;;;;4.45;2.78;;;;;;;8.14;79.91;99578.38;5064234;28;20048;-81
2021/05/29 03:30:12;;;;;;;2.15;1.60;;;;;;;8.04;80.21;99576.75;5059526;28;20454;-80
2021/05/29 03:32:39;;;;;;;3.15;1.80;;;;;;;8.18;79.72;99583.47;5051224;28;20044;-80
2021/05/29 03:35:07;;;;;;;2.10;1.70;;;;;;;7.91;80.39;99567.19;5058996;28;20057;-80
2021/05/29 03:37:33;;;;;;;2.88;2.13;;;;;;;7.90;80.07;99570.06;5052333;28;20037;-80
2021/05/29 03:40:01;;;;;;;2.22;1.77;;;;;;;7.97;80.33;99581.97;5063781;28;20044;-80
2021/05/29 03:42:27;;;;;;;2.05;1.83;;;;;;;8.21;78.74;99588.56;5069537;28;20051;-80
2021/05/29 03:44:53;;;;;;;2.13;1.63;;;;;;;7.95;79.39;99567.75;5068060;28;20393;-80
2021/05/29 03:47:19;;;;;;;3.60;1.83;;;;;;;8.01;79.20;99591.47;5067175;28;20048;-80
2021/05/29 03:49:46;;;;;;;2.08;1.63;;;;;;;7.83;79.27;99577.09;5071733;28;20040;-80
2021/05/29 03:52:12;;;;;;;2.55;1.67;;;;;;;7.78;79.34;99585.69;5053328;28;20076;-80
2021/05/29 03:54:38;;;;;;;2.40;1.60;;;;;;;7.78;79.71;99577.56;5060370;28;20361;-80
2021/05/29 03:57:07;;;;;;;1.67;1.58;;;;;;;7.81;79.45;99585.38;5062156;28;20045;-80
2021/05/29 03:59:33;;;;;;;3.25;1.77;;;;;;;7.71;79.91;99598.19;5063108;28;20049;-80
2021/05/29 04:01:59;;;;;;;2.63;1.80;;;;;;;7.79;79.75;99598.22;5068135;28;20075;-80
2021/05/29 04:04:25;;;;;;;2.85;2.13;;;;;;;7.77;79.56;99589.44;5057709;28;20041;-81
2021/05/29 04:06:53;;;;;;;4.75;1.98;;;;;;;7.73;79.47;99593.44;5052136;28;20060;-80
2021/05/29 04:09:19;;;;;;;1.60;1.50;;;;;;;7.74;79.67;99596.00;5055219;28;20127;-81
2021/05/29 04:11:45;;;;;;;1.88;1.38;;;;;;;7.66;80.69;99598.63;5052879;28;20412;-81
2021/05/29 04:14:12;;;;;;;2.40;1.40;;;;;;;7.68;80.78;99598.47;5050898;28;20041;-81
2021/05/29 04:16:38;;;;;;;3.65;1.85;;;;;;;7.70;80.34;99582.94;5061088;28;20053;-80
2021/05/29 04:19:04;;;;;;;2.67;1.90;;;;;;;7.95;80.06;99595.66;5052027;28;20057;-81
2021/05/29 04:21:31;;;;;;;2.58;1.65;;;;;;;7.96;79.74;99596.50;5054754;28;20087;-81
2021/05/29 04:23:57;;;;;;;4.38;1.90;;;;;;;7.90;80.11;99605.25;5064559;28;20353;-81
2021/05/29 04:26:23;;;;;;;3.05;1.90;;;;;;;7.87;80.15;99594.72;5056356;28;20455;-79
2021/05/29 04:28:50;;;;;;;2.58;2.08;;;;;;;8.06;80.26;99602.66;5065190;28;20103;-80
2021/05/29 04:31:18;;;;;;;3.13;1.48;;;;;;;8.10;79.82;99598.66;5050968;28;20049;-79
2021/05/29 04:33:44;;;;;;;5.15;1.90;;;;;;;8.29;79.85;99611.09;5060403;28;20048;-79
2021/05/29 04:36:10;;;;;;;6.47;2.20;;;;;;;8.40;79.84;99610.03;5064056;28;20064;-80
2021/05/29 04:38:36;;;;;;;2.88;2.08;;;;;;;8.39;79.60;99600.19;5056985;28;20481;-80
2021/05/29 04:41:03;;;;;;;4.70;2.42;;;;;;;8.55;78.88;99618.44;5053091;28;20543;-80
2021/05/29 04:43:29;;;;;;;2.67;2.00;;;;;;;8.53;79.46;99616.88;5068246;28;20091;-80
2021/05/29 04:45:55;;;;;;;8.43;2.30;;;;;;;8.49;79.76;99592.81;5071331;28;20503;-80
2021/05/29 04:48:22;;;;;;;3.50;2.13;;;;;;;8.67;79.05;99608.16;5066535;28;20075;-80
2021/05/29 04:53:33;;;;;;;4.63;2.20;;;;;;;8.76;78.50;99617.16;5060499;28;20137;-79
2021/05/29 04:56:01;;;;;;;2.75;2.42;;;;;;;8.79;77.54;99625.84;5071468;28;20119;-79
2021/05/29 04:58:28;;;;;;;3.30;2.47;;;;;;;9.01;77.11;99628.97;5060864;28;20492;-79
2021/05/29 05:00:55;;;;;;;3.17;2.00;;;;;;;9.73;74.95;99614.91;5055120;28;20053;-79
2021/05/29 05:03:23;;;;;;;2.90;2.03;;;;;;;10.35;72.13;99619.00;5058692;28;20049;-79
2021/05/29 05:05:49;;;;;;;3.25;2.35;;;;;;;11.07;69.85;99612.66;5054901;28;20276;-80
2021/05/29 05:08:15;;;;;;;3.13;1.90;;;;;;;11.84;67.60;99603.66;5054559;28;20052;-80
2021/05/29 05:10:42;;;;;;;2.08;1.67;;;;;;;12.38;66.50;99616.34;5067443;28;20040;-80
2021/05/29 05:13:08;;;;;;;2.75;1.70;;;;;;;12.81;64.60;99612.97;5068774;28;20521;-80
2021/05/29 05:15:35;;;;;;;7.60;2.17;;;;;;;13.20;63.11;99617.25;5058625;28;20048;-80
2021/05/29 05:18:01;;;;;;;2.08;1.60;;;;;;;13.30;62.79;99614.25;5054746;28;20052;-79
2021/05/29 05:20:28;;;;;;;3.53;2.00;;;;;;;13.29;62.42;99613.38;5066427;28;20048;-80
2021/05/29 05:22:54;;;;;;;3.40;1.88;;;;;;;13.83;60.79;99614.84;5070367;28;20049;-80
2021/05/29 05:25:20;;;;;;;3.03;1.95;;;;;;;13.86;60.75;99619.91;5056171;28;20044;-80
2021/05/29 05:27:47;;;;;;;3.03;1.90;;;;;;;13.79;61.00;99617.13;5072317;28;20454;-80
2021/05/29 05:30:15;;;;;;;5.18;1.90;;;;;;;14.05;60.41;99617.59;5054672;28;20670;-80
2021/05/29 05:32:43;;;;;;;2.03;1.83;;;;;;;14.40;59.28;99621.22;5067239;28;20059;-78
2021/05/29 05:35:14;;;;;;;7.13;1.80;;;;;;;14.47;58.00;99613.09;5056683;28;20264;-78
2021/05/29 05:37:43;;;;;;;3.40;1.90;;;;;;;14.47;58.46;99622.13;5058277;28;20451;-79
2021/05/29 05:40:10;;;;;;;2.90;2.17;;;;;;;14.31;57.95;99612.31;5054284;28;20048;-78
2021/05/29 05:42:37;;;;;;;2.25;1.98;;;;;;;14.73;57.63;99620.66;5063763;28;20040;-81
2021/05/29 05:45:04;;;;;;;8.38;1.80;;;;;;;15.25;55.90;99625.75;5073947;28;20052;-80
2021/05/29 05:47:30;;;;;;;3.22;1.95;;;;;;;15.20;55.20;99620.91;5072438;28;20055;-80
2021/05/29 05:49:57;;;;;;;3.10;1.90;;;;;;;14.91;55.97;99632.97;5071913;28;20078;-80
2021/05/29 05:52:23;;;;;;;4.50;1.75;;;;;;;14.89;56.20;99619.50;5062331;28;20451;-80
2021/05/29 05:54:50;;;;;;;4.25;1.70;;;;;;;14.98;55.06;99633.84;5071370;28;20479;-80
2021/05/29 05:57:16;;;;;;;3.42;1.80;;;;;;;15.19;54.39;99631.00;5065872;28;20105;-80
2021/05/29 05:59:44;;;;;;;4.85;2.05;;;;;;;15.79;53.77;99630.38;5063130;28;20070;-80
2021/05/29 06:02:10;;;;;;;6.75;1.60;;;;;;;15.77;54.23;99632.47;5073077;28;20077;-80
2021/05/29 06:04:36;;;;;;;3.90;1.80;;;;;;;15.80;54.34;99632.06;5059965;28;20271;-80
2021/05/29 06:07:02;;;;;;;2.75;1.85;;;;;;;15.69;53.64;99632.66;5055082;28;20056;-80
2021/05/29 06:09:29;;;;;;;3.22;2.20;;;;;;;16.24;52.01;99635.28;5055095;28;20045;-80
2021/05/29 06:11:57;;;;;;;5.00;2.50;;;;;;;16.58;51.58;99638.88;5072462;28;20058;-80
2021/05/29 06:19:51;;;;;;;4.70;1.95;;;;;;;16.62;51.40;99643.75;5054931;28;20087;-80
2021/05/29 06:22:18;;;;;;;5.03;2.10;;;;;;;17.25;50.18;99639.63;5071498;28;20553;-80
2021/05/29 06:24:44;;;;;;;3.80;1.42;;;;;;;17.59;49.26;99645.78;5072687;28;20102;-80
2021/05/29 06:27:11;;;;;;;3.83;2.08;;;;;;;17.46;48.44;99641.22;5067787;28;20052;-80
2021/05/29 06:29:37;;;;;;;3.58;1.80;;;;;;;17.50;49.14;99642.44;5058548;28;20037;-80
2021/05/29 06:32:04;;;;;;;2.42;1.50;;;;;;;17.34;48.97;99646.56;5061245;28;20102;-80
2021/05/29 06:34:30;;;;;;;3.90;1.63;;;;;;;17.54;48.70;99651.13;5069108;28;20053;-80
2021/05/29 06:36:57;;;;;;;3.88;1.60;;;;;;;18.02;47.57;99650.66;5056450;28;20048;-80
2021/05/29 06:39:23;;;;;;;2.83;1.40;;;;;;;17.78;47.28;99659.66;5066131;28;20102;-80
2021/05/29 06:41:49;;;;;;;1.20;1.02;;;;;;;17.94;46.88;99647.31;5069570;28;20503;-80
2021/05/29 06:44:16;;;;;;;3.53;1.50;;;;;;;18.45;45.32;99650.97;5069988;28;20040;-80
2021/05/29 06:46:43;;;;;;;4.85;1.30;;;;;;;18.27;46.62;99649.00;5064342;28;20075;-80
2021/05/29 06:49:09;;;;;;;2.85;1.50;;;;;;;18.29;46.35;99650.47;5055226;28;20048;-80
2021/05/29 06:51:40;;;;;;;2.60;1.35;;;;;;;18.15;45.32;99663.47;5055863;28;20048;-80
2021/05/29 06:54:12;;;;;;;1.98;1.23;;;;;;;17.74;47.23;99659.25;5053036;28;20075;-80
2021/05/29 06:59:23;;;;;;;3.28;1.40;;;;;;;18.10;47.37;99652.31;5063384;28;20126;-80
2021/05/29 07:01:50;;;;;;;3.47;1.20;;;;;;;18.28;47.43;99651.53;5062330;28;20045;-80
2021/05/29 07:04:17;;;;;;;1.92;1.30;;;;;;;18.19;46.67;99647.38;5058518;28;20084;-80
2021/05/29 07:06:44;;;;;;;2.97;1.48;;;;;;;18.71;44.95;99652.63;5064170;28;20056;-81
2021/05/29 07:09:10;;;;;;;1.55;1.05;;;;;;;18.64;44.62;99630.69;5052572;28;20086;-80
2021/05/29 07:11:39;;;;;;;2.22;1.48;;;;;;;19.06;44.87;99641.94;5052739;28;20064;-80
2021/05/29 07:14:06;;;;;;;1.60;1.30;;;;;;;18.93;45.30;99640.16;5052497;28;20053;-80
2021/05/29 07:16:34;;;;;;;3.22;1.70;;;;;;;19.65;43.31;99638.69;5068181;28;20066;-81
2021/05/29 07:19:01;;;;;;;2.92;1.40;;;;;;;19.70;43.11;99641.56;5058217;28;20048;-80
2021/05/29 07:21:27;;;;;;;4.45;1.50;;;;;;;19.33;42.49;99641.63;5056773;28;20107;-80
2021/05/29 07:23:53;;;;;;;6.97;1.23;;;;;;;18.80;44.87;99644.94;5052737;28;20134;-80
2021/05/29 07:26:19;;;;;;;2.40;1.20;;;;;;;18.21;44.36;99625.97;5052447;28;20084;-80
2021/05/29 07:28:46;;;;;;;2.17;1.23;;;;;;;18.43;43.98;99640.19;5053891;28;20051;-80
2021/05/29 07:31:12;;;;;;;1.63;1.20;;;;;;;19.24;42.70;99632.84;5071353;28;20041;-80
2021/05/29 07:33:39;;;;;;;5.47;1.45;;;;;;;19.25;42.25;99633.66;5072494;28;20049;-80
2021/05/29 07:36:06;;;;;;;5.10;1.40;;;;;;;19.37;43.37;99637.31;5059629;28;20040;-80
2021/05/29 07:38:33;;;;;;;4.22;1.20;;;;;;;19.16;42.33;99633.13;5070457;28;20048;-80
2021/05/29 07:40:59;;;;;;;1.35;1.20;;;;;;;19.51;41.52;99631.63;5068432;28;20052;-80
2021/05/29 07:43:25;;;;;;;1.92;1.30;;;;;;;19.75;41.44;99633.44;5065615;28;20052;-80
2021/05/29 07:45:52;;;;;;;1.92;1.20;;;;;;;20.04;39.96;99630.06;5071834;28;20415;-80
2021/05/29 07:48:18;;;;;;;1.98;1.67;;;;;;;20.25;40.24;99628.69;5054533;28;20563;-80
2021/05/29 07:50:57;;;;;;;1.55;1.20;;;;;;;19.62;40.05;99622.59;5052040;28;20053;-80
2021/05/29 07:53:25;;;;;;;1.27;1.10;;;;;;;19.91;40.36;99645.75;5051221;28;20048;-80
2021/05/29 07:55:51;;;;;;;1.38;1.20;;;;;;;19.77;39.83;99635.97;5051679;28;20411;-80
2021/05/29 07:58:17;;;;;;;1.63;1.13;;;;;;;19.44;41.53;99635.31;5051765;28;20503;-80
2021/05/29 08:00:49;;;;;;;2.83;1.30;;;;;;;19.53;42.52;99640.53;5051607;28;20048;-80
2021/05/29 08:03:15;;;;;;;2.90;1.73;;;;;;;19.91;38.79;99631.13;5050513;28;20060;-81
2021/05/29 08:05:41;;;;;;;1.23;1.00;;;;;;;19.34;41.12;99629.50;5049831;28;20076;-81
2021/05/29 08:08:08;;;;;;;3.05;1.15;;;;;;;18.97;40.59;99637.81;5051512;28;20079;-81
2021/05/29 08:10:38;;;;;;;1.60;1.27;;;;;;;18.31;41.84;99642.81;5057866;28;20049;-80
2021/05/29 08:13:04;;;;;;;4.53;1.30;;;;;;;19.01;44.40;99646.44;5058613;28;20102;-80
2021/05/29 08:15:33;;;;;;;2.20;1.13;;;;;;;18.94;41.84;99641.03;5056783;28;20477;-80
2021/05/29 08:18:00;;;;;;;4.03;1.42;;;;;;;19.70;40.41;99633.28;5066481;28;20053;-80
2021/05/29 08:20:26;;;;;;;3.17;1.20;;;;;;;19.50;40.59;99633.56;5066386;28;20048;-80
2021/05/29 08:22:52;;;;;;;3.05;1.38;;;;;;;18.98;42.36;99631.19;5052743;28;20108;-80
2021/05/29 08:25:20;;;;;;;3.80;1.65;;;;;;;19.12;41.32;99633.81;5051764;28;20622;-80
2021/05/29 08:27:46;;;;;;;1.90;1.33;;;;;;;19.06;41.69;99635.59;5050948;28;20057;-80
2021/05/29 08:30:17;;;;;;;1.20;1.10;;;;;;;19.60;42.94;99630.25;5054096;28;20444;-80
2021/05/29 08:32:43;;;;;;;3.10;1.43;;;;;;;19.42;41.43;99631.97;5068373;28;20182;-81
2021/05/29 08:35:10;;;;;;;2.75;1.38;;;;;;;19.37;41.49;99642.00;5069526;28;20295;-80
2021/05/29 08:37:37;;;;;;;1.90;1.42;;;;;;;19.25;42.26;99644.69;5064730;28;20496;-80
2021/05/29 08:40:07;;;;;;;2.47;1.30;;;;;;;19.29;40.41;99632.13;5070970;28;20045;-80
2021/05/29 08:42:34;;;;;;;3.35;1.83;;;;;;;19.66;41.16;99628.47;5059303;28;20045;-80
2021/05/29 08:45:01;;;;;;;3.63;1.58;;;;;;;19.59;40.71;99642.38;5050873;28;20413;-81
2021/05/29 08:47:28;;;;;;;4.35;1.30;;;;;;;19.30;40.59;99628.31;5063580;28;20061;-80
2021/05/29 08:49:54;;;;;;;2.97;1.48;;;;;;;19.18;40.14;99632.91;5051439;28;20044;-80
2021/05/29 08:52:21;;;;;;;1.55;1.10;;;;;;;19.46;40.03;99646.13;5051497;28;20048;-80
2021/05/29 08:54:48;;;;;;;4.57;1.20;;;;;;;19.24;39.30;99634.72;5064234;28;20051;-81
2021/05/29 08:57:18;;;;;;;2.47;0.95;;;;;;;19.23;40.41;99622.88;5068527;28;20125;-80
2021/05/29 08:59:47;;;;;;;2.38;1.40;;;;;;;19.18;40.11;99621.88;5061895;28;20044;-80
2021/05/29 09:02:13;;;;;;;3.13;1.30;;;;;;;19.49;40.06;99625.53;5051328;28;20056;-81
2021/05/29 09:05:07;;;;;;;2.53;1.30;;;;;;;19.77;39.12;99630.44;5055090;28;20052;-80
2021/05/29 09:07:34;;;;;;;1.50;1.20;;;;;;;19.50;36.37;99628.06;5057931;28;20052;-81
2021/05/29 09:10:21;;;;;;;1.98;0.93;;;;;;;18.93;38.62;99633.81;5059535;28;20037;-81
2021/05/29 09:13:13;;;;;;;1.83;1.17;;;;;;;18.52;38.61;99629.75;5051800;28;20045;-81
2021/05/29 09:15:49;;;;;;;6.07;1.17;;;;;;;18.40;37.33;99626.88;5059246;28;20052;-83
2021/05/29 09:18:31;;;;;;;3.05;0.90;;;;;;;18.29;36.91;99625.72;5057952;28;20056;-81
2021/05/29 09:21:33;;;;;;;2.90;1.20;;;;;;;17.75;38.13;99643.59;5054419;28;20071;-81
2021/05/29 09:24:02;;;;;;;1.30;1.00;;;;;;;18.15;38.40;99635.94;5056080;28;20098;-80
2021/05/29 09:26:44;;;;;;;3.47;1.10;;;;;;;18.54;37.47;99641.38;5050465;28;20045;-80
2021/05/29 09:29:21;;;;;;;4.90;1.13;;;;;;;18.45;37.55;99645.47;5058318;28;20041;-82
2021/05/29 09:31:57;;;;;;;1.17;1.00;;;;;;;18.73;36.35;99651.34;5058948;28;20207;-80
2021/05/29 09:34:37;;;;;;;1.20;0.88;;;;;;;18.95;37.88;99650.94;5054016;28;20143;-81
2021/05/29 09:37:07;;;;;;;1.92;0.88;;;;;;;19.20;38.13;99650.88;5054326;28;20079;-82
2021/05/29 09:39:36;;;;;;;1.08;0.98;;;;;;;19.54;35.38;99639.44;5056383;28;20465;-81
2021/05/29 09:42:10;;;;;;;1.07;0.63;;;;;;;19.00;35.85;99645.63;5056712;28;20049;-83
2021/05/29 09:44:37;;;;;;;1.27;0.93;;;;;;;19.26;35.60;99654.66;5056041;28;20053;-82
2021/05/29 09:47:18;;;;;;;1.40;1.10;;;;;;;18.99;36.30;99657.69;5056139;28;20045;-85
2021/05/29 09:49:50;;;;;;;3.28;0.80;;;;;;;18.79;35.70;99638.59;5062141;28;20151;-80
2021/05/29 09:52:27;;;;;;;1.85;1.00;;;;;;;19.03;35.90;99650.66;5060932;28;20126;-80
2021/05/29 09:54:54;;;;;;;1.48;1.00;;;;;;;18.91;34.85;99644.22;5059999;28;20048;-82
2021/05/29 09:57:21;;;;;;;2.55;1.20;;;;;;;18.83;36.71;99648.06;5057750;28;20048;-83
2021/05/29 09:59:58;;;;;;;1.15;1.05;;;;;;;18.93;35.85;99647.59;5059867;28;20049;-83
2021/05/29 10:02:26;;;;;;;2.95;0.90;;;;;;;19.03;35.94;99658.94;5072778;28;20560;-81
2021/05/29 10:04:56;;;;;;;1.27;1.00;;;;;;;19.04;37.09;99638.56;5066581;28;20063;-81
2021/05/29 10:10:50;;;;;;;2.17;0.98;;;;;;;19.72;36.63;99655.13;5055102;28;20047;-80
2021/05/29 10:13:17;;;;;;;1.65;0.80;;;;;;;19.36;35.76;99648.59;5054819;28;20124;-81
2021/05/29 10:15:44;;;;;;;2.33;1.00;;;;;;;19.52;36.11;99658.16;5054698;28;20072;-80
2021/05/29 10:18:11;;;;;;;1.65;0.90;;;;;;;19.59;35.11;99642.38;5055262;28;20053;-81
2021/05/29 10:20:38;;;;;;;2.40;1.10;;;;;;;19.62;33.75;99647.41;5053638;28;20450;-81
2021/05/29 10:23:06;;;;;;;4.93;0.98;;;;;;;19.74;34.46;99653.00;5052908;28;20049;-82
2021/05/29 10:25:32;;;;;;;2.38;1.08;;;;;;;19.49;35.05;99656.69;5053284;28;20056;-82
2021/05/29 10:27:59;;;;;;;1.38;0.70;;;;;;;20.00;34.32;99649.03;5053057;28;20439;-81
2021/05/29 10:30:26;;;;;;;2.25;0.90;;;;;;;20.10;36.82;99648.47;5053905;28;20393;-81
2021/05/29 10:33:21;;;;;;;1.02;0.73;;;;;;;20.13;36.56;99656.28;5053598;28;20110;-82
2021/05/29 10:35:48;;;;;;;1.02;0.80;;;;;;;20.36;35.65;99657.41;5042302;28;20369;-81
2021/05/29 10:38:15;;;;;;;1.50;0.95;;;;;;;19.98;36.43;99648.44;5073687;28;20049;-82
2021/05/29 10:40:42;;;;;;;5.13;1.35;;;;;;;19.64;35.79;99648.84;5062752;28;20041;-83
2021/05/29 10:43:15;;;;;;;1.25;0.80;;;;;;;19.53;34.47;99655.16;5063394;28;20132;-84
2021/05/29 10:46:06;;;;;;;0.95;0.80;;;;;;;19.98;34.31;99652.03;5059510;28;20416;-84
2021/05/29 10:48:43;;;;;;;3.65;0.55;;;;;;;19.96;33.55;99645.91;5053165;28;20044;-83
2021/05/29 10:51:11;;;;;;;0.60;0.50;;;;;;;20.03;29.37;99648.56;5053620;28;20067;-83
2021/05/29 10:53:51;;;;;;;0.90;0.63;;;;;;;19.82;31.81;99651.84;5053742;28;20121;-86
2021/05/29 10:56:24;;;;;;;;;;;;;;;20.09;32.71;99650.38;5057547;28;20076;-81
2021/05/29 10:59:07;;;;;;;1.65;0.70;;;;;;;20.24;32.67;99657.38;5070228;28;19924;-82
2021/05/29 11:02:04;;;;;;;1.70;0.55;;;;;;;20.09;33.77;99652.31;5053205;28;20052;-82
2021/05/29 11:04:33;;;;;;;0.50;0.50;;;;;;;20.21;32.02;99635.78;5048177;28;20068;-81
2021/05/29 11:07:21;;;;;;;1.02;0.68;;;;;;;20.30;31.70;99654.50;5061996;28;20662;-81
2021/05/29 11:10:06;;;;;;;0.70;0.70;;;;;;;20.04;31.35;99643.88;5057264;28;20045;-82
2021/05/29 11:12:53;;;;;;;2.63;1.00;;;;;;;20.24;31.93;99649.09;5068545;28;20064;-81
2021/05/29 11:15:21;;;;;;;0.60;0.60;;;;;;;20.37;31.59;99643.38;5057778;28;20499;-83
2021/05/29 11:18:10;;;;;;;1.20;0.70;;;;;;;20.63;30.29;99644.81;5048550;28;20060;-82
2021/05/29 11:21:02;;;;;;;1.00;0.50;;;;;;;20.49;29.70;99641.47;5063614;28;20063;-82
2021/05/29 11:23:44;;;;;;;2.38;1.23;;;;;;;20.30;32.91;99626.06;5059747;28;20052;-82
2021/05/29 11:26:10;;;;;;;1.70;1.30;;;;;;;20.89;31.92;99645.44;5051745;28;20420;-82
2021/05/29 11:28:37;;;;;;;0.73;0.60;;;;;;;20.85;31.50;99641.47;5051644;28;20060;-82
2021/05/29 11:31:07;;;;;;;2.88;0.82;;;;;;;20.30;31.41;99637.94;5050405;28;20045;-82
2021/05/29 11:33:34;;;;;;;0.60;0.60;;;;;;;20.54;31.01;99637.16;5051832;28;20514;-82
2021/05/29 11:36:00;;;;;;;1.73;0.60;;;;;;;20.67;32.49;99626.72;5051468;28;20041;-82
2021/05/29 11:38:31;;;;;;;0.75;0.63;;;;;;;20.68;29.86;99631.19;5051395;28;20060;-83
2021/05/29 11:40:59;;;;;;;1.10;0.80;;;;;;;20.94;30.51;99631.78;5057179;28;20045;-81
2021/05/29 11:43:37;;;;;;;0.45;0.45;;;;;;;20.64;31.03;99610.59;5052555;28;20056;-80
2021/05/29 11:46:06;;;;;;;0.50;0.50;;;;;;;20.70;31.42;99625.41;5050846;28;20072;-81
2021/05/29 11:48:34;;;;;;;1.33;0.50;;;;;;;20.73;31.28;99629.59;5064770;28;20048;-82
2021/05/29 11:51:12;;;;;;;1.25;0.63;;;;;;;20.62;30.63;99618.28;5070535;28;20307;-80
2021/05/29 11:53:49;;;;;;;0.70;0.70;;;;;;;20.39;30.58;99618.28;5064675;28;20105;-81
2021/05/29 11:56:18;;;;;;;1.17;0.40;;;;;;;21.06;31.78;99619.84;5053131;28;20130;-81
2021/05/29 11:58:50;;;;;;;2.08;0.70;;;;;;;21.04;32.95;99626.44;5056625;28;20492;-82